sensor_id;sensor_type;location;lat;lon;timestamp;temperature;humidity
9095;DHT22;4583;49.796;9.902;2023-01-06T00:00:21;11.60;99.90
9095;DHT22;4583;49.796;9.902;2023-01-06T00:10:23;11.70;99.90
9095;DHT22;4583;49.796;9.902;2023-01-06T00:20:25;11.80;99.90
9095;DHT22;4583;49.796;9.902;2023-01-06T00:30:27;11.80;99.90
9095;DHT22;4583;49.796;9.902;2023-01-06T00:40:28;11.80;99.90
9095;DHT22;4583;49.796;9.902;2023-01-06T00:50:30;11.90;99.90
9095;DHT22;4583;49.796;9.902;2023-01-06T01:00:32;11.80;99.90
9095;DHT22;4583;49.796;9.902;2023-01-06T01:10:34;11.80;99.90
9095;DHT22;4583;49.796;9.902;2023-01-06T01:20:36;11.80;99.90
9095;DHT22;4583;49.796;9.902;2023-01-06T01:30:37;11.80;99.90
9095;DHT22;4583;49.796;9.902;2023-01-06T01:40:46;11.90;99.90
9095;DHT22;4583;49.796;9.902;2023-01-06T01:50:50;11.90;99.90
9095;DHT22;4583;49.796;9.902;2023-01-06T02:00:54;12.00;99.90
9095;DHT22;4583;49.796;9.902;2023-01-06T02:10:55;11.90;99.90
9095;DHT22;4583;49.796;9.902;2023-01-06T02:31:41;12.00;99.90
9095;DHT22;4583;49.796;9.902;2023-01-06T02:52:32;12.10;99.90
9095;DHT22;4583;49.796;9.902;2023-01-06T03:02:39;12.10;99.90
9095;DHT22;4583;49.796;9.902;2023-01-06T03:12:51;12.10;99.90
9095;DHT22;4583;49.796;9.902;2023-01-06T03:22:53;12.10;99.90
9095;DHT22;4583;49.796;9.902;2023-01-06T03:33:12;12.10;99.90
9095;DHT22;4583;49.796;9.902;2023-01-06T03:43:30;12.10;99.90
9095;DHT22;4583;49.796;9.902;2023-01-06T03:53:56;12.20;99.90
9095;DHT22;4583;49.796;9.902;2023-01-06T04:04:00;12.10;99.90
9095;DHT22;4583;49.796;9.902;2023-01-06T04:14:02;12.10;99.90
9095;DHT22;4583;49.796;9.902;2023-01-06T04:24:04;12.10;99.90
9095;DHT22;4583;49.796;9.902;2023-01-06T04:34:06;12.10;99.90
9095;DHT22;4583;49.796;9.902;2023-01-06T04:44:08;12.10;99.90
9095;DHT22;4583;49.796;9.902;2023-01-06T04:54:09;12.10;99.90
9095;DHT22;4583;49.796;9.902;2023-01-06T05:04:11;12.10;99.90
9095;DHT22;4583;49.796;9.902;2023-01-06T05:14:13;12.10;99.90
9095;DHT22;4583;49.796;9.902;2023-01-06T05:24:14;12.10;99.90
9095;DHT22;4583;49.796;9.902;2023-01-06T05:34:16;12.10;99.90
9095;DHT22;4583;49.796;9.902;2023-01-06T05:44:18;12.10;99.90
9095;DHT22;4583;49.796;9.902;2023-01-06T05:54:21;12.10;99.90
9095;DHT22;4583;49.796;9.902;2023-01-06T06:04:23;12.10;99.90
9095;DHT22;4583;49.796;9.902;2023-01-06T06:14:24;12.10;99.90
9095;DHT22;4583;49.796;9.902;2023-01-06T06:24:27;12.10;99.90
9095;DHT22;4583;49.796;9.902;2023-01-06T06:34:28;12.10;99.90
9095;DHT22;4583;49.796;9.902;2023-01-06T06:44:30;12.10;99.90
9095;DHT22;4583;49.796;9.902;2023-01-06T06:54:32;12.20;99.90
9095;DHT22;4583;49.796;9.902;2023-01-06T07:04:33;12.20;99.90
9095;DHT22;4583;49.796;9.902;2023-01-06T07:14:35;12.20;99.90
9095;DHT22;4583;49.796;9.902;2023-01-06T07:24:37;12.20;99.90
9095;DHT22;4583;49.796;9.902;2023-01-06T07:34:38;12.10;99.90
9095;DHT22;4583;49.796;9.902;2023-01-06T07:44:40;12.10;99.90
9095;DHT22;4583;49.796;9.902;2023-01-06T07:54:42;12.10;99.90
9095;DHT22;4583;49.796;9.902;2023-01-06T08:04:43;12.00;99.90
9095;DHT22;4583;49.796;9.902;2023-01-06T08:14:45;11.80;99.90
9095;DHT22;4583;49.796;9.902;2023-01-06T08:24:47;11.80;99.90
9095;DHT22;4583;49.796;9.902;2023-01-06T08:34:48;11.90;99.90
9095;DHT22;4583;49.796;9.902;2023-01-06T08:44:50;11.80;99.90
9095;DHT22;4583;49.796;9.902;2023-01-06T08:54:52;12.00;99.90
9095;DHT22;4583;49.796;9.902;2023-01-06T09:04:53;12.30;99.90
9095;DHT22;4583;49.796;9.902;2023-01-06T09:14:55;12.20;99.90
9095;DHT22;4583;49.796;9.902;2023-01-06T09:24:57;12.20;99.90
9095;DHT22;4583;49.796;9.902;2023-01-06T09:34:59;12.20;99.90
9095;DHT22;4583;49.796;9.902;2023-01-06T09:45:05;11.70;99.90
9095;DHT22;4583;49.796;9.902;2023-01-06T09:55:16;11.40;99.90
9095;DHT22;4583;49.796;9.902;2023-01-06T10:05:27;11.30;99.90
9095;DHT22;4583;49.796;9.902;2023-01-06T10:16:08;11.40;99.90
9095;DHT22;4583;49.796;9.902;2023-01-06T10:26:26;11.60;99.90
9095;DHT22;4583;49.796;9.902;2023-01-06T10:36:33;11.70;99.90
9095;DHT22;4583;49.796;9.902;2023-01-06T10:46:40;11.70;99.90
9095;DHT22;4583;49.796;9.902;2023-01-06T10:56:54;11.80;99.90
9095;DHT22;4583;49.796;9.902;2023-01-06T11:07:00;11.90;99.90
9095;DHT22;4583;49.796;9.902;2023-01-06T11:17:05;11.90;99.90
9095;DHT22;4583;49.796;9.902;2023-01-06T11:27:15;11.90;99.90
9095;DHT22;4583;49.796;9.902;2023-01-06T11:37:37;11.90;99.90
9095;DHT22;4583;49.796;9.902;2023-01-06T11:47:40;11.80;99.50
9095;DHT22;4583;49.796;9.902;2023-01-06T11:58:09;11.80;99.60
9095;DHT22;4583;49.796;9.902;2023-01-06T12:08:20;11.70;99.90
9095;DHT22;4583;49.796;9.902;2023-01-06T12:18:27;11.80;99.90
9095;DHT22;4583;49.796;9.902;2023-01-06T12:28:37;12.00;99.90
9095;DHT22;4583;49.796;9.902;2023-01-06T12:38:52;12.00;99.90
9095;DHT22;4583;49.796;9.902;2023-01-06T12:49:02;12.00;99.90
9095;DHT22;4583;49.796;9.902;2023-01-06T12:59:11;11.90;99.90
9095;DHT22;4583;49.796;9.902;2023-01-06T13:09:39;12.00;99.90
9095;DHT22;4583;49.796;9.902;2023-01-06T13:19:49;12.00;99.90
9095;DHT22;4583;49.796;9.902;2023-01-06T13:30:14;12.00;99.90
9095;DHT22;4583;49.796;9.902;2023-01-06T13:40:22;12.00;99.90
9095;DHT22;4583;49.796;9.902;2023-01-06T13:50:30;12.00;99.90
9095;DHT22;4583;49.796;9.902;2023-01-06T14:00:41;12.00;99.70
9095;DHT22;4583;49.796;9.902;2023-01-06T14:10:44;11.90;99.80
9095;DHT22;4583;49.796;9.902;2023-01-06T14:20:46;11.90;99.70
9095;DHT22;4583;49.796;9.902;2023-01-06T14:41:38;11.80;99.10
9095;DHT22;4583;49.796;9.902;2023-01-06T14:51:40;11.80;99.10
9095;DHT22;4583;49.796;9.902;2023-01-06T15:01:55;11.80;98.70
9095;DHT22;4583;49.796;9.902;2023-01-06T15:11:57;11.80;98.80
9095;DHT22;4583;49.796;9.902;2023-01-06T15:22:06;11.80;98.50
9095;DHT22;4583;49.796;9.902;2023-01-06T15:32:10;11.80;98.60
9095;DHT22;4583;49.796;9.902;2023-01-06T15:42:15;11.80;98.60
9095;DHT22;4583;49.796;9.902;2023-01-06T15:52:26;11.80;98.20
9095;DHT22;4583;49.796;9.902;2023-01-06T16:02:29;11.70;98.20
9095;DHT22;4583;49.796;9.902;2023-01-06T16:12:37;11.70;98.10
9095;DHT22;4583;49.796;9.902;2023-01-06T16:32:49;11.80;98.30
9095;DHT22;4583;49.796;9.902;2023-01-06T16:42:58;11.80;98.50
9095;DHT22;4583;49.796;9.902;2023-01-06T16:53:14;11.80;98.50
9095;DHT22;4583;49.796;9.902;2023-01-06T17:03:19;11.80;98.20
9095;DHT22;4583;49.796;9.902;2023-01-06T17:13:21;11.80;98.40
9095;DHT22;4583;49.796;9.902;2023-01-06T17:23:46;11.80;98.00
9095;DHT22;4583;49.796;9.902;2023-01-06T17:33:48;11.80;98.00
9095;DHT22;4583;49.796;9.902;2023-01-06T17:43:50;11.80;98.20
9095;DHT22;4583;49.796;9.902;2023-01-06T17:53:52;11.80;98.20
9095;DHT22;4583;49.796;9.902;2023-01-06T18:04:13;11.70;97.90
9095;DHT22;4583;49.796;9.902;2023-01-06T18:14:27;12.70;98.70
9095;DHT22;4583;49.796;9.902;2023-01-06T18:24:35;11.70;97.80
9095;DHT22;4583;49.796;9.902;2023-01-06T18:34:39;11.70;98.10
9095;DHT22;4583;49.796;9.902;2023-01-06T18:44:43;11.70;98.20
9095;DHT22;4583;49.796;9.902;2023-01-06T18:54:45;11.70;97.90
9095;DHT22;4583;49.796;9.902;2023-01-06T19:04:47;11.80;98.20
9095;DHT22;4583;49.796;9.902;2023-01-06T19:14:51;11.80;98.20
9095;DHT22;4583;49.796;9.902;2023-01-06T19:24:56;11.70;98.10
9095;DHT22;4583;49.796;9.902;2023-01-06T19:35:00;11.60;98.20
9095;DHT22;4583;49.796;9.902;2023-01-06T19:45:21;11.70;98.20
9095;DHT22;4583;49.796;9.902;2023-01-06T19:55:29;11.70;98.20
9095;DHT22;4583;49.796;9.902;2023-01-06T20:05:32;11.70;98.10
9095;DHT22;4583;49.796;9.902;2023-01-06T20:15:34;11.70;98.00
9095;DHT22;4583;49.796;9.902;2023-01-06T20:25:36;11.70;98.00
9095;DHT22;4583;49.796;9.902;2023-01-06T20:35:38;11.70;97.60
9095;DHT22;4583;49.796;9.902;2023-01-06T20:45:39;11.70;97.90
9095;DHT22;4583;49.796;9.902;2023-01-06T20:55:41;11.70;97.90
9095;DHT22;4583;49.796;9.902;2023-01-06T21:05:43;11.70;97.90
9095;DHT22;4583;49.796;9.902;2023-01-06T21:15:44;11.70;97.70
9095;DHT22;4583;49.796;9.902;2023-01-06T21:25:46;11.80;98.00
9095;DHT22;4583;49.796;9.902;2023-01-06T21:35:48;11.80;98.00
9095;DHT22;4583;49.796;9.902;2023-01-06T21:45:49;11.90;98.10
9095;DHT22;4583;49.796;9.902;2023-01-06T21:55:51;11.90;98.20
9095;DHT22;4583;49.796;9.902;2023-01-06T22:05:55;11.80;98.00
9095;DHT22;4583;49.796;9.902;2023-01-06T22:15:58;11.80;98.00
9095;DHT22;4583;49.796;9.902;2023-01-06T22:25:59;11.70;98.10
9095;DHT22;4583;49.796;9.902;2023-01-06T22:36:01;11.70;98.10
9095;DHT22;4583;49.796;9.902;2023-01-06T22:46:03;11.80;98.00
9095;DHT22;4583;49.796;9.902;2023-01-06T22:56:07;11.70;98.00
9095;DHT22;4583;49.796;9.902;2023-01-06T23:06:11;11.70;98.00
9095;DHT22;4583;49.796;9.902;2023-01-06T23:16:16;11.70;97.90
9095;DHT22;4583;49.796;9.902;2023-01-06T23:26:25;13.10;98.50
9095;DHT22;4583;49.796;9.902;2023-01-06T23:36:28;11.60;97.80
9095;DHT22;4583;49.796;9.902;2023-01-06T23:46:36;11.60;97.70
9095;DHT22;4583;49.796;9.902;2023-01-06T23:56:39;11.50;97.60
